sensor_id;sensor_type;location;lat;lon;timestamp;P1;durP1;ratioP1;P2;durP2;ratioP2
59145;SDS011;44928;53.074;6.646;2022-08-01T00:00:32;11.70;;;6.68;;
59145;SDS011;44928;53.074;6.646;2022-08-01T00:02:58;11.35;;;6.85;;
59145;SDS011;44928;53.074;6.646;2022-08-01T00:05:24;12.93;;;6.63;;
59145;SDS011;44928;53.074;6.646;2022-08-01T00:07:50;14.05;;;7.18;;
59145;SDS011;44928;53.074;6.646;2022-08-01T00:10:15;13.20;;;7.22;;
59145;SDS011;44928;53.074;6.646;2022-08-01T00:12:42;13.48;;;7.30;;
59145;SDS011;44928;53.074;6.646;2022-08-01T00:15:09;12.95;;;7.45;;
59145;SDS011;44928;53.074;6.646;2022-08-01T00:17:37;12.60;;;7.32;;
59145;SDS011;44928;53.074;6.646;2022-08-01T00:20:04;11.93;;;7.32;;
59145;SDS011;44928;53.074;6.646;2022-08-01T00:22:32;12.27;;;7.40;;
59145;SDS011;44928;53.074;6.646;2022-08-01T00:24:58;13.60;;;7.38;;
59145;SDS011;44928;53.074;6.646;2022-08-01T00:27:24;12.05;;;6.60;;
59145;SDS011;44928;53.074;6.646;2022-08-01T00:29:49;13.77;;;7.57;;
59145;SDS011;44928;53.074;6.646;2022-08-01T00:32:15;12.93;;;8.05;;
59145;SDS011;44928;53.074;6.646;2022-08-01T00:34:41;13.35;;;7.03;;
59145;SDS011;44928;53.074;6.646;2022-08-01T00:37:07;12.40;;;6.90;;
59145;SDS011;44928;53.074;6.646;2022-08-01T00:39:32;12.23;;;7.60;;
59145;SDS011;44928;53.074;6.646;2022-08-01T00:41:59;13.38;;;7.50;;
59145;SDS011;44928;53.074;6.646;2022-08-01T00:44:25;12.55;;;7.30;;
59145;SDS011;44928;53.074;6.646;2022-08-01T00:46:51;12.98;;;7.70;;
59145;SDS011;44928;53.074;6.646;2022-08-01T00:49:17;11.80;;;6.80;;
59145;SDS011;44928;53.074;6.646;2022-08-01T00:51:43;13.52;;;7.40;;
59145;SDS011;44928;53.074;6.646;2022-08-01T00:54:08;13.15;;;7.63;;
59145;SDS011;44928;53.074;6.646;2022-08-01T00:56:34;10.60;;;6.40;;
59145;SDS011;44928;53.074;6.646;2022-08-01T00:59:00;9.73;;;5.70;;
59145;SDS011;44928;53.074;6.646;2022-08-01T01:01:28;12.32;;;5.93;;
59145;SDS011;44928;53.074;6.646;2022-08-01T01:03:54;11.73;;;6.00;;
59145;SDS011;44928;53.074;6.646;2022-08-01T01:12:15;10.35;;;5.10;;
59145;SDS011;44928;53.074;6.646;2022-08-01T01:15:00;10.18;;;5.15;;
59145;SDS011;44928;53.074;6.646;2022-08-01T01:17:56;9.95;;;4.43;;
59145;SDS011;44928;53.074;6.646;2022-08-01T01:20:38;8.27;;;4.25;;
59145;SDS011;44928;53.074;6.646;2022-08-01T01:23:20;10.45;;;4.38;;
59145;SDS011;44928;53.074;6.646;2022-08-01T01:31:34;8.52;;;3.75;;
59145;SDS011;44928;53.074;6.646;2022-08-01T01:34:05;9.30;;;3.70;;
59145;SDS011;44928;53.074;6.646;2022-08-01T01:36:35;7.80;;;3.40;;
59145;SDS011;44928;53.074;6.646;2022-08-01T01:39:03;7.30;;;3.33;;
59145;SDS011;44928;53.074;6.646;2022-08-01T01:41:28;8.77;;;3.38;;
59145;SDS011;44928;53.074;6.646;2022-08-01T01:43:55;8.63;;;3.10;;
59145;SDS011;44928;53.074;6.646;2022-08-01T01:46:23;7.95;;;3.70;;
59145;SDS011;44928;53.074;6.646;2022-08-01T01:48:52;8.55;;;3.15;;
59145;SDS011;44928;53.074;6.646;2022-08-01T01:51:21;9.30;;;3.05;;
59145;SDS011;44928;53.074;6.646;2022-08-01T01:53:49;8.15;;;2.92;;
59145;SDS011;44928;53.074;6.646;2022-08-01T01:56:17;5.70;;;2.42;;
59145;SDS011;44928;53.074;6.646;2022-08-01T01:58:44;8.88;;;2.45;;
59145;SDS011;44928;53.074;6.646;2022-08-01T02:01:14;6.17;;;2.20;;
59145;SDS011;44928;53.074;6.646;2022-08-01T02:03:42;7.25;;;2.20;;
59145;SDS011;44928;53.074;6.646;2022-08-01T02:06:08;6.28;;;2.25;;
59145;SDS011;44928;53.074;6.646;2022-08-01T02:08:37;5.68;;;1.67;;
59145;SDS011;44928;53.074;6.646;2022-08-01T02:11:04;5.05;;;1.90;;
59145;SDS011;44928;53.074;6.646;2022-08-01T02:13:43;6.85;;;2.22;;
59145;SDS011;44928;53.074;6.646;2022-08-01T02:16:18;7.65;;;2.38;;
59145;SDS011;44928;53.074;6.646;2022-08-01T02:18:47;6.45;;;1.83;;
59145;SDS011;44928;53.074;6.646;2022-08-01T02:21:14;7.40;;;1.83;;
59145;SDS011;44928;53.074;6.646;2022-08-01T02:23:44;8.07;;;1.80;;
59145;SDS011;44928;53.074;6.646;2022-08-01T02:26:13;7.43;;;1.88;;
59145;SDS011;44928;53.074;6.646;2022-08-01T02:28:43;6.80;;;2.08;;
59145;SDS011;44928;53.074;6.646;2022-08-01T02:31:14;8.40;;;2.17;;
59145;SDS011;44928;53.074;6.646;2022-08-01T02:33:45;6.47;;;1.77;;
59145;SDS011;44928;53.074;6.646;2022-08-01T02:36:14;8.23;;;1.90;;
59145;SDS011;44928;53.074;6.646;2022-08-01T02:38:42;7.07;;;1.75;;
59145;SDS011;44928;53.074;6.646;2022-08-01T02:41:11;6.03;;;1.83;;
59145;SDS011;44928;53.074;6.646;2022-08-01T02:43:42;7.93;;;1.92;;
59145;SDS011;44928;53.074;6.646;2022-08-01T02:46:12;6.30;;;1.67;;
59145;SDS011;44928;53.074;6.646;2022-08-01T02:48:42;7.18;;;2.05;;
59145;SDS011;44928;53.074;6.646;2022-08-01T02:51:09;7.65;;;1.70;;
59145;SDS011;44928;53.074;6.646;2022-08-01T02:53:36;6.40;;;1.60;;
59145;SDS011;44928;53.074;6.646;2022-08-01T02:56:06;9.52;;;2.00;;
59145;SDS011;44928;53.074;6.646;2022-08-01T02:58:33;7.35;;;1.65;;
59145;SDS011;44928;53.074;6.646;2022-08-01T03:01:01;5.68;;;1.40;;
59145;SDS011;44928;53.074;6.646;2022-08-01T03:03:28;6.57;;;1.63;;
59145;SDS011;44928;53.074;6.646;2022-08-01T03:05:55;4.97;;;1.35;;
59145;SDS011;44928;53.074;6.646;2022-08-01T03:08:22;5.90;;;1.45;;
59145;SDS011;44928;53.074;6.646;2022-08-01T03:10:49;10.70;;;1.60;;
59145;SDS011;44928;53.074;6.646;2022-08-01T03:13:17;5.72;;;1.40;;
59145;SDS011;44928;53.074;6.646;2022-08-01T03:15:44;10.30;;;1.77;;
59145;SDS011;44928;53.074;6.646;2022-08-01T03:18:12;6.63;;;1.88;;
59145;SDS011;44928;53.074;6.646;2022-08-01T03:20:40;8.68;;;2.05;;
59145;SDS011;44928;53.074;6.646;2022-08-01T03:23:08;12.65;;;2.00;;
59145;SDS011;44928;53.074;6.646;2022-08-01T03:25:38;9.38;;;2.00;;
59145;SDS011;44928;53.074;6.646;2022-08-01T03:28:06;11.02;;;2.15;;
59145;SDS011;44928;53.074;6.646;2022-08-01T03:30:33;8.60;;;1.98;;
59145;SDS011;44928;53.074;6.646;2022-08-01T03:33:01;9.88;;;2.65;;
59145;SDS011;44928;53.074;6.646;2022-08-01T03:35:30;8.82;;;2.10;;
59145;SDS011;44928;53.074;6.646;2022-08-01T03:37:59;9.02;;;2.22;;
59145;SDS011;44928;53.074;6.646;2022-08-01T03:43:05;13.80;;;3.53;;
59145;SDS011;44928;53.074;6.646;2022-08-01T03:45:37;10.18;;;2.90;;
59145;SDS011;44928;53.074;6.646;2022-08-01T03:48:10;11.10;;;2.65;;
59145;SDS011;44928;53.074;6.646;2022-08-01T03:50:45;11.05;;;2.38;;
59145;SDS011;44928;53.074;6.646;2022-08-01T03:53:13;11.77;;;2.77;;
59145;SDS011;44928;53.074;6.646;2022-08-01T03:55:41;14.13;;;3.03;;
59145;SDS011;44928;53.074;6.646;2022-08-01T03:58:09;9.63;;;2.25;;
59145;SDS011;44928;53.074;6.646;2022-08-01T04:00:38;9.02;;;2.53;;
59145;SDS011;44928;53.074;6.646;2022-08-01T04:03:08;9.63;;;2.53;;
59145;SDS011;44928;53.074;6.646;2022-08-01T04:05:41;9.68;;;2.20;;
59145;SDS011;44928;53.074;6.646;2022-08-01T04:08:08;8.23;;;2.17;;
59145;SDS011;44928;53.074;6.646;2022-08-01T04:10:34;9.93;;;2.50;;
59145;SDS011;44928;53.074;6.646;2022-08-01T04:13:00;9.13;;;2.90;;
59145;SDS011;44928;53.074;6.646;2022-08-01T04:15:26;14.30;;;2.90;;
59145;SDS011;44928;53.074;6.646;2022-08-01T04:17:52;8.57;;;2.63;;
59145;SDS011;44928;53.074;6.646;2022-08-01T04:20:19;14.45;;;2.67;;
59145;SDS011;44928;53.074;6.646;2022-08-01T04:22:45;9.82;;;2.50;;
59145;SDS011;44928;53.074;6.646;2022-08-01T04:25:15;11.18;;;2.80;;
59145;SDS011;44928;53.074;6.646;2022-08-01T04:27:50;7.32;;;2.20;;
59145;SDS011;44928;53.074;6.646;2022-08-01T04:30:19;9.13;;;2.50;;
59145;SDS011;44928;53.074;6.646;2022-08-01T04:32:49;13.68;;;3.03;;
59145;SDS011;44928;53.074;6.646;2022-08-01T04:35:19;9.32;;;2.50;;
59145;SDS011;44928;53.074;6.646;2022-08-01T04:37:46;14.07;;;2.78;;
59145;SDS011;44928;53.074;6.646;2022-08-01T04:40:13;9.13;;;2.35;;
59145;SDS011;44928;53.074;6.646;2022-08-01T04:42:41;11.85;;;2.67;;
59145;SDS011;44928;53.074;6.646;2022-08-01T04:45:07;10.90;;;2.70;;
59145;SDS011;44928;53.074;6.646;2022-08-01T04:47:34;12.18;;;2.83;;
59145;SDS011;44928;53.074;6.646;2022-08-01T04:50:03;11.10;;;2.63;;
59145;SDS011;44928;53.074;6.646;2022-08-01T04:52:33;8.10;;;2.50;;
59145;SDS011;44928;53.074;6.646;2022-08-01T04:54:59;12.40;;;2.80;;
59145;SDS011;44928;53.074;6.646;2022-08-01T04:57:25;10.02;;;2.42;;
59145;SDS011;44928;53.074;6.646;2022-08-01T04:59:51;9.38;;;2.38;;
59145;SDS011;44928;53.074;6.646;2022-08-01T05:02:22;12.27;;;2.67;;
59145;SDS011;44928;53.074;6.646;2022-08-01T05:04:48;10.02;;;2.75;;
59145;SDS011;44928;53.074;6.646;2022-08-01T05:07:14;9.93;;;2.33;;
59145;SDS011;44928;53.074;6.646;2022-08-01T05:09:41;9.80;;;2.30;;
59145;SDS011;44928;53.074;6.646;2022-08-01T05:12:07;10.23;;;2.53;;
59145;SDS011;44928;53.074;6.646;2022-08-01T05:14:34;11.82;;;2.38;;
59145;SDS011;44928;53.074;6.646;2022-08-01T05:17:01;10.02;;;2.42;;
59145;SDS011;44928;53.074;6.646;2022-08-01T05:19:38;10.45;;;2.65;;
59145;SDS011;44928;53.074;6.646;2022-08-01T05:22:05;8.63;;;2.50;;
59145;SDS011;44928;53.074;6.646;2022-08-01T05:24:36;14.07;;;2.85;;
59145;SDS011;44928;53.074;6.646;2022-08-01T05:27:04;15.23;;;3.00;;
59145;SDS011;44928;53.074;6.646;2022-08-01T05:29:31;8.38;;;2.03;;
59145;SDS011;44928;53.074;6.646;2022-08-01T05:31:57;10.73;;;2.63;;
59145;SDS011;44928;53.074;6.646;2022-08-01T05:34:24;12.43;;;2.40;;
59145;SDS011;44928;53.074;6.646;2022-08-01T05:36:50;10.75;;;2.50;;
59145;SDS011;44928;53.074;6.646;2022-08-01T05:39:16;13.05;;;2.88;;
59145;SDS011;44928;53.074;6.646;2022-08-01T05:41:42;13.40;;;2.80;;
59145;SDS011;44928;53.074;6.646;2022-08-01T05:44:08;11.95;;;2.63;;
59145;SDS011;44928;53.074;6.646;2022-08-01T05:46:34;8.95;;;2.55;;
59145;SDS011;44928;53.074;6.646;2022-08-01T05:49:01;14.18;;;3.08;;
59145;SDS011;44928;53.074;6.646;2022-08-01T05:51:28;12.48;;;2.67;;
59145;SDS011;44928;53.074;6.646;2022-08-01T05:53:54;12.52;;;2.58;;
59145;SDS011;44928;53.074;6.646;2022-08-01T05:56:20;12.50;;;2.33;;
59145;SDS011;44928;53.074;6.646;2022-08-01T05:58:47;15.25;;;2.78;;
59145;SDS011;44928;53.074;6.646;2022-08-01T06:01:14;13.73;;;3.03;;
59145;SDS011;44928;53.074;6.646;2022-08-01T06:03:40;14.32;;;3.05;;
59145;SDS011;44928;53.074;6.646;2022-08-01T06:06:06;11.65;;;2.63;;
59145;SDS011;44928;53.074;6.646;2022-08-01T06:08:31;12.48;;;2.75;;
59145;SDS011;44928;53.074;6.646;2022-08-01T06:10:57;15.13;;;3.03;;
59145;SDS011;44928;53.074;6.646;2022-08-01T06:13:23;14.23;;;3.08;;
59145;SDS011;44928;53.074;6.646;2022-08-01T06:15:50;13.25;;;2.65;;
59145;SDS011;44928;53.074;6.646;2022-08-01T06:18:16;13.13;;;3.40;;
59145;SDS011;44928;53.074;6.646;2022-08-01T06:20:42;15.23;;;3.05;;
59145;SDS011;44928;53.074;6.646;2022-08-01T06:23:08;12.90;;;2.95;;
59145;SDS011;44928;53.074;6.646;2022-08-01T06:25:34;12.02;;;3.20;;
59145;SDS011;44928;53.074;6.646;2022-08-01T06:28:00;12.77;;;2.80;;
59145;SDS011;44928;53.074;6.646;2022-08-01T06:30:26;16.85;;;3.25;;
59145;SDS011;44928;53.074;6.646;2022-08-01T06:32:52;12.98;;;3.20;;
59145;SDS011;44928;53.074;6.646;2022-08-01T06:35:20;12.15;;;3.00;;
59145;SDS011;44928;53.074;6.646;2022-08-01T06:37:46;14.05;;;3.33;;
59145;SDS011;44928;53.074;6.646;2022-08-01T06:40:12;12.13;;;2.90;;
59145;SDS011;44928;53.074;6.646;2022-08-01T06:42:38;10.55;;;2.83;;
59145;SDS011;44928;53.074;6.646;2022-08-01T06:45:04;15.48;;;3.25;;
59145;SDS011;44928;53.074;6.646;2022-08-01T06:47:31;13.20;;;2.97;;
59145;SDS011;44928;53.074;6.646;2022-08-01T06:49:57;12.65;;;2.88;;
59145;SDS011;44928;53.074;6.646;2022-08-01T06:52:23;17.88;;;3.38;;
59145;SDS011;44928;53.074;6.646;2022-08-01T06:54:49;12.52;;;2.47;;
59145;SDS011;44928;53.074;6.646;2022-08-01T06:57:15;13.82;;;3.05;;
59145;SDS011;44928;53.074;6.646;2022-08-01T06:59:41;13.07;;;2.85;;
59145;SDS011;44928;53.074;6.646;2022-08-01T07:02:06;12.82;;;2.95;;
59145;SDS011;44928;53.074;6.646;2022-08-01T07:04:33;13.10;;;2.97;;
59145;SDS011;44928;53.074;6.646;2022-08-01T07:06:59;16.50;;;3.30;;
59145;SDS011;44928;53.074;6.646;2022-08-01T07:09:25;14.45;;;2.72;;
59145;SDS011;44928;53.074;6.646;2022-08-01T07:11:51;12.18;;;2.75;;
59145;SDS011;44928;53.074;6.646;2022-08-01T07:14:19;15.63;;;3.08;;
59145;SDS011;44928;53.074;6.646;2022-08-01T07:16:46;13.15;;;2.80;;
59145;SDS011;44928;53.074;6.646;2022-08-01T07:19:12;12.60;;;3.35;;
59145;SDS011;44928;53.074;6.646;2022-08-01T07:21:38;17.25;;;3.08;;
59145;SDS011;44928;53.074;6.646;2022-08-01T07:24:04;15.48;;;2.67;;
59145;SDS011;44928;53.074;6.646;2022-08-01T07:26:31;17.17;;;3.28;;
59145;SDS011;44928;53.074;6.646;2022-08-01T07:28:56;11.95;;;2.83;;
59145;SDS011;44928;53.074;6.646;2022-08-01T07:31:22;15.10;;;2.92;;
59145;SDS011;44928;53.074;6.646;2022-08-01T07:33:48;14.93;;;2.80;;
59145;SDS011;44928;53.074;6.646;2022-08-01T07:36:17;11.18;;;2.45;;
59145;SDS011;44928;53.074;6.646;2022-08-01T07:38:44;14.75;;;3.17;;
59145;SDS011;44928;53.074;6.646;2022-08-01T07:41:11;15.50;;;2.92;;
59145;SDS011;44928;53.074;6.646;2022-08-01T07:43:37;12.20;;;2.72;;
59145;SDS011;44928;53.074;6.646;2022-08-01T07:46:03;15.00;;;2.67;;
59145;SDS011;44928;53.074;6.646;2022-08-01T07:48:29;11.98;;;2.67;;
59145;SDS011;44928;53.074;6.646;2022-08-01T07:50:55;10.50;;;2.53;;
59145;SDS011;44928;53.074;6.646;2022-08-01T07:53:21;13.82;;;2.53;;
59145;SDS011;44928;53.074;6.646;2022-08-01T07:55:46;16.00;;;2.97;;
59145;SDS011;44928;53.074;6.646;2022-08-01T07:58:13;12.57;;;2.95;;
59145;SDS011;44928;53.074;6.646;2022-08-01T08:00:39;12.35;;;2.95;;
59145;SDS011;44928;53.074;6.646;2022-08-01T08:03:05;14.70;;;2.53;;
59145;SDS011;44928;53.074;6.646;2022-08-01T08:05:30;12.30;;;2.75;;
59145;SDS011;44928;53.074;6.646;2022-08-01T08:08:00;12.18;;;3.00;;
59145;SDS011;44928;53.074;6.646;2022-08-01T08:10:33;15.02;;;3.00;;
59145;SDS011;44928;53.074;6.646;2022-08-01T08:12:59;14.70;;;3.03;;
59145;SDS011;44928;53.074;6.646;2022-08-01T08:15:26;11.35;;;2.83;;
59145;SDS011;44928;53.074;6.646;2022-08-01T08:17:52;12.07;;;3.25;;
59145;SDS011;44928;53.074;6.646;2022-08-01T08:20:18;13.88;;;2.58;;
59145;SDS011;44928;53.074;6.646;2022-08-01T08:22:44;14.10;;;2.47;;
59145;SDS011;44928;53.074;6.646;2022-08-01T08:25:09;14.25;;;2.67;;
59145;SDS011;44928;53.074;6.646;2022-08-01T08:27:36;15.00;;;2.70;;
59145;SDS011;44928;53.074;6.646;2022-08-01T08:30:02;11.50;;;2.50;;
59145;SDS011;44928;53.074;6.646;2022-08-01T08:32:32;11.77;;;2.53;;
59145;SDS011;44928;53.074;6.646;2022-08-01T08:34:58;13.30;;;2.42;;
59145;SDS011;44928;53.074;6.646;2022-08-01T08:37:24;9.45;;;2.15;;
59145;SDS011;44928;53.074;6.646;2022-08-01T08:39:49;14.13;;;2.53;;
59145;SDS011;44928;53.074;6.646;2022-08-01T08:42:15;10.13;;;2.33;;
59145;SDS011;44928;53.074;6.646;2022-08-01T08:44:41;14.50;;;2.40;;
59145;SDS011;44928;53.074;6.646;2022-08-01T08:47:07;9.88;;;2.25;;
59145;SDS011;44928;53.074;6.646;2022-08-01T08:49:36;14.10;;;3.20;;
59145;SDS011;44928;53.074;6.646;2022-08-01T08:52:02;11.02;;;2.20;;
59145;SDS011;44928;53.074;6.646;2022-08-01T08:54:29;13.48;;;2.80;;
59145;SDS011;44928;53.074;6.646;2022-08-01T08:56:57;15.55;;;2.78;;
59145;SDS011;44928;53.074;6.646;2022-08-01T08:59:24;9.82;;;2.25;;
59145;SDS011;44928;53.074;6.646;2022-08-01T09:01:50;10.18;;;2.25;;
59145;SDS011;44928;53.074;6.646;2022-08-01T09:04:16;12.32;;;2.22;;
59145;SDS011;44928;53.074;6.646;2022-08-01T09:06:42;13.35;;;2.10;;
59145;SDS011;44928;53.074;6.646;2022-08-01T09:09:08;13.60;;;2.20;;
59145;SDS011;44928;53.074;6.646;2022-08-01T09:11:35;11.88;;;2.20;;
59145;SDS011;44928;53.074;6.646;2022-08-01T09:14:08;10.85;;;2.28;;
59145;SDS011;44928;53.074;6.646;2022-08-01T09:16:37;10.38;;;2.20;;
59145;SDS011;44928;53.074;6.646;2022-08-01T09:19:12;8.52;;;1.77;;
59145;SDS011;44928;53.074;6.646;2022-08-01T09:21:54;10.95;;;2.03;;
59145;SDS011;44928;53.074;6.646;2022-08-01T09:24:25;14.60;;;2.33;;
59145;SDS011;44928;53.074;6.646;2022-08-01T09:26:52;9.23;;;1.67;;
59145;SDS011;44928;53.074;6.646;2022-08-01T09:29:26;9.38;;;2.10;;
59145;SDS011;44928;53.074;6.646;2022-08-01T09:31:54;14.30;;;2.50;;
59145;SDS011;44928;53.074;6.646;2022-08-01T09:34:25;11.43;;;2.40;;
59145;SDS011;44928;53.074;6.646;2022-08-01T09:36:56;10.23;;;1.83;;
59145;SDS011;44928;53.074;6.646;2022-08-01T09:39:30;9.35;;;1.95;;
59145;SDS011;44928;53.074;6.646;2022-08-01T09:41:59;10.02;;;2.25;;
59145;SDS011;44928;53.074;6.646;2022-08-01T09:44:42;11.52;;;1.98;;
59145;SDS011;44928;53.074;6.646;2022-08-01T09:47:12;8.30;;;1.40;;
59145;SDS011;44928;53.074;6.646;2022-08-01T09:49:45;9.98;;;1.90;;
59145;SDS011;44928;53.074;6.646;2022-08-01T09:55:27;8.32;;;1.80;;
59145;SDS011;44928;53.074;6.646;2022-08-01T09:58:04;7.78;;;1.80;;
59145;SDS011;44928;53.074;6.646;2022-08-01T10:00:33;9.90;;;1.70;;
59145;SDS011;44928;53.074;6.646;2022-08-01T10:03:00;10.25;;;1.83;;
59145;SDS011;44928;53.074;6.646;2022-08-01T10:05:50;12.65;;;2.28;;
59145;SDS011;44928;53.074;6.646;2022-08-01T10:08:18;9.52;;;2.30;;
59145;SDS011;44928;53.074;6.646;2022-08-01T10:11:05;9.48;;;1.77;;
59145;SDS011;44928;53.074;6.646;2022-08-01T10:13:38;8.38;;;1.63;;
59145;SDS011;44928;53.074;6.646;2022-08-01T10:16:05;8.90;;;1.73;;
59145;SDS011;44928;53.074;6.646;2022-08-01T10:18:32;9.52;;;1.67;;
59145;SDS011;44928;53.074;6.646;2022-08-01T10:21:00;7.82;;;1.33;;
59145;SDS011;44928;53.074;6.646;2022-08-01T10:23:27;7.60;;;1.60;;
59145;SDS011;44928;53.074;6.646;2022-08-01T10:25:59;8.93;;;1.33;;
59145;SDS011;44928;53.074;6.646;2022-08-01T10:28:26;8.68;;;1.23;;
59145;SDS011;44928;53.074;6.646;2022-08-01T10:30:56;8.15;;;1.60;;
59145;SDS011;44928;53.074;6.646;2022-08-01T10:33:24;7.30;;;1.77;;
59145;SDS011;44928;53.074;6.646;2022-08-01T10:35:50;9.88;;;1.58;;
59145;SDS011;44928;53.074;6.646;2022-08-01T10:38:17;9.38;;;1.58;;
59145;SDS011;44928;53.074;6.646;2022-08-01T10:40:43;8.77;;;1.63;;
59145;SDS011;44928;53.074;6.646;2022-08-01T10:43:10;8.10;;;1.50;;
59145;SDS011;44928;53.074;6.646;2022-08-01T10:45:36;8.00;;;1.80;;
59145;SDS011;44928;53.074;6.646;2022-08-01T10:48:08;8.15;;;1.77;;
59145;SDS011;44928;53.074;6.646;2022-08-01T10:50:41;10.65;;;1.70;;
59145;SDS011;44928;53.074;6.646;2022-08-01T10:53:10;8.32;;;1.70;;
59145;SDS011;44928;53.074;6.646;2022-08-01T10:58:25;8.27;;;1.60;;
59145;SDS011;44928;53.074;6.646;2022-08-01T11:03:43;9.65;;;2.10;;
59145;SDS011;44928;53.074;6.646;2022-08-01T11:08:52;8.93;;;1.40;;
59145;SDS011;44928;53.074;6.646;2022-08-01T11:11:19;15.00;;;1.95;;
59145;SDS011;44928;53.074;6.646;2022-08-01T11:14:00;6.90;;;1.50;;
59145;SDS011;44928;53.074;6.646;2022-08-01T11:16:27;8.07;;;1.45;;
59145;SDS011;44928;53.074;6.646;2022-08-01T11:18:54;7.95;;;1.40;;
59145;SDS011;44928;53.074;6.646;2022-08-01T11:21:20;8.05;;;1.75;;
59145;SDS011;44928;53.074;6.646;2022-08-01T11:23:50;10.05;;;1.75;;
59145;SDS011;44928;53.074;6.646;2022-08-01T11:26:19;7.80;;;1.35;;
59145;SDS011;44928;53.074;6.646;2022-08-01T11:28:46;8.90;;;1.40;;
59145;SDS011;44928;53.074;6.646;2022-08-01T11:31:41;7.25;;;1.38;;
59145;SDS011;44928;53.074;6.646;2022-08-01T11:34:07;9.82;;;1.83;;
59145;SDS011;44928;53.074;6.646;2022-08-01T11:36:32;8.23;;;1.30;;
59145;SDS011;44928;53.074;6.646;2022-08-01T11:41:32;6.68;;;1.30;;
59145;SDS011;44928;53.074;6.646;2022-08-01T11:44:04;7.57;;;1.52;;
59145;SDS011;44928;53.074;6.646;2022-08-01T11:47:32;10.13;;;1.60;;
59145;SDS011;44928;53.074;6.646;2022-08-01T11:57:04;6.70;;;1.33;;
59145;SDS011;44928;53.074;6.646;2022-08-01T11:59:42;9.13;;;1.25;;
59145;SDS011;44928;53.074;6.646;2022-08-01T12:04:48;7.13;;;1.67;;
59145;SDS011;44928;53.074;6.646;2022-08-01T12:07:17;7.13;;;1.38;;
59145;SDS011;44928;53.074;6.646;2022-08-01T12:09:44;6.45;;;1.20;;
59145;SDS011;44928;53.074;6.646;2022-08-01T12:12:12;7.20;;;1.23;;
59145;SDS011;44928;53.074;6.646;2022-08-01T12:14:42;8.27;;;1.35;;
59145;SDS011;44928;53.074;6.646;2022-08-01T12:17:08;10.52;;;1.52;;
59145;SDS011;44928;53.074;6.646;2022-08-01T12:19:34;7.95;;;1.23;;
59145;SDS011;44928;53.074;6.646;2022-08-01T12:24:53;5.05;;;1.30;;
59145;SDS011;44928;53.074;6.646;2022-08-01T12:27:29;11.25;;;1.83;;
59145;SDS011;44928;53.074;6.646;2022-08-01T12:29:57;5.93;;;1.17;;
59145;SDS011;44928;53.074;6.646;2022-08-01T12:32:28;8.70;;;1.40;;
59145;SDS011;44928;53.074;6.646;2022-08-01T12:35:04;7.80;;;1.50;;
59145;SDS011;44928;53.074;6.646;2022-08-01T12:37:38;7.63;;;1.30;;
59145;SDS011;44928;53.074;6.646;2022-08-01T12:42:36;7.32;;;1.20;;
59145;SDS011;44928;53.074;6.646;2022-08-01T12:47:38;9.77;;;1.40;;
59145;SDS011;44928;53.074;6.646;2022-08-01T12:50:05;5.40;;;1.00;;
59145;SDS011;44928;53.074;6.646;2022-08-01T12:52:33;6.00;;;1.23;;
59145;SDS011;44928;53.074;6.646;2022-08-01T12:55:09;7.70;;;1.23;;
59145;SDS011;44928;53.074;6.646;2022-08-01T12:57:49;6.72;;;1.30;;
59145;SDS011;44928;53.074;6.646;2022-08-01T13:00:27;7.00;;;1.45;;
59145;SDS011;44928;53.074;6.646;2022-08-01T13:03:04;8.32;;;1.40;;
59145;SDS011;44928;53.074;6.646;2022-08-01T13:08:17;7.63;;;1.20;;
59145;SDS011;44928;53.074;6.646;2022-08-01T13:10:44;6.20;;;1.20;;
59145;SDS011;44928;53.074;6.646;2022-08-01T13:13:10;8.40;;;1.30;;
59145;SDS011;44928;53.074;6.646;2022-08-01T13:15:38;9.77;;;1.58;;
59145;SDS011;44928;53.074;6.646;2022-08-01T13:18:21;7.70;;;1.20;;
59145;SDS011;44928;53.074;6.646;2022-08-01T13:20:49;5.80;;;1.10;;
59145;SDS011;44928;53.074;6.646;2022-08-01T13:23:16;6.03;;;1.23;;
59145;SDS011;44928;53.074;6.646;2022-08-01T13:25:47;5.63;;;1.10;;
59145;SDS011;44928;53.074;6.646;2022-08-01T13:28:18;6.80;;;1.27;;
59145;SDS011;44928;53.074;6.646;2022-08-01T13:33:22;5.20;;;1.38;;
59145;SDS011;44928;53.074;6.646;2022-08-01T13:35:53;7.00;;;1.20;;
59145;SDS011;44928;53.074;6.646;2022-08-01T13:38:20;8.10;;;1.20;;
59145;SDS011;44928;53.074;6.646;2022-08-01T13:41:07;8.35;;;1.55;;
59145;SDS011;44928;53.074;6.646;2022-08-01T13:43:33;9.15;;;1.45;;
59145;SDS011;44928;53.074;6.646;2022-08-01T13:46:00;6.30;;;1.15;;
59145;SDS011;44928;53.074;6.646;2022-08-01T13:48:29;6.10;;;1.23;;
59145;SDS011;44928;53.074;6.646;2022-08-01T13:50:55;7.97;;;1.50;;
59145;SDS011;44928;53.074;6.646;2022-08-01T13:53:21;5.70;;;1.10;;
59145;SDS011;44928;53.074;6.646;2022-08-01T13:55:47;8.43;;;1.20;;
59145;SDS011;44928;53.074;6.646;2022-08-01T13:58:12;5.45;;;1.15;;
59145;SDS011;44928;53.074;6.646;2022-08-01T14:00:38;6.22;;;1.48;;
59145;SDS011;44928;53.074;6.646;2022-08-01T14:03:04;7.10;;;1.15;;
59145;SDS011;44928;53.074;6.646;2022-08-01T14:05:30;6.47;;;1.52;;
59145;SDS011;44928;53.074;6.646;2022-08-01T14:07:56;9.40;;;1.27;;
59145;SDS011;44928;53.074;6.646;2022-08-01T14:10:22;7.20;;;1.50;;
59145;SDS011;44928;53.074;6.646;2022-08-01T14:12:48;8.95;;;1.75;;
59145;SDS011;44928;53.074;6.646;2022-08-01T14:15:14;6.38;;;1.25;;
59145;SDS011;44928;53.074;6.646;2022-08-01T14:17:40;6.95;;;1.55;;
59145;SDS011;44928;53.074;6.646;2022-08-01T14:20:06;8.27;;;1.25;;
59145;SDS011;44928;53.074;6.646;2022-08-01T14:22:32;6.43;;;1.88;;
59145;SDS011;44928;53.074;6.646;2022-08-01T14:24:58;6.47;;;1.15;;
59145;SDS011;44928;53.074;6.646;2022-08-01T14:27:24;5.03;;;1.10;;
59145;SDS011;44928;53.074;6.646;2022-08-01T14:29:50;9.45;;;1.63;;
59145;SDS011;44928;53.074;6.646;2022-08-01T14:32:16;6.72;;;1.20;;
59145;SDS011;44928;53.074;6.646;2022-08-01T14:34:41;7.00;;;1.30;;
59145;SDS011;44928;53.074;6.646;2022-08-01T14:37:07;7.95;;;1.38;;
59145;SDS011;44928;53.074;6.646;2022-08-01T14:39:33;5.68;;;1.05;;
59145;SDS011;44928;53.074;6.646;2022-08-01T14:41:58;6.50;;;1.25;;
59145;SDS011;44928;53.074;6.646;2022-08-01T14:44:24;6.30;;;1.35;;
59145;SDS011;44928;53.074;6.646;2022-08-01T14:46:50;6.38;;;1.25;;
59145;SDS011;44928;53.074;6.646;2022-08-01T14:49:15;7.50;;;1.00;;
59145;SDS011;44928;53.074;6.646;2022-08-01T14:51:41;7.82;;;1.42;;
59145;SDS011;44928;53.074;6.646;2022-08-01T14:54:07;7.47;;;1.25;;
59145;SDS011;44928;53.074;6.646;2022-08-01T14:56:33;7.40;;;1.23;;
59145;SDS011;44928;53.074;6.646;2022-08-01T14:58:58;5.43;;;1.20;;
59145;SDS011;44928;53.074;6.646;2022-08-01T15:01:24;7.60;;;1.20;;
59145;SDS011;44928;53.074;6.646;2022-08-01T15:03:50;7.90;;;1.30;;
59145;SDS011;44928;53.074;6.646;2022-08-01T15:06:16;6.57;;;1.23;;
59145;SDS011;44928;53.074;6.646;2022-08-01T15:08:42;7.43;;;1.35;;
59145;SDS011;44928;53.074;6.646;2022-08-01T15:11:09;8.73;;;1.20;;
59145;SDS011;44928;53.074;6.646;2022-08-01T15:13:35;6.95;;;1.08;;
59145;SDS011;44928;53.074;6.646;2022-08-01T15:16:01;7.05;;;1.00;;
59145;SDS011;44928;53.074;6.646;2022-08-01T15:18:27;7.07;;;1.40;;
59145;SDS011;44928;53.074;6.646;2022-08-01T15:20:53;7.32;;;1.20;;
59145;SDS011;44928;53.074;6.646;2022-08-01T15:23:20;7.25;;;1.38;;
59145;SDS011;44928;53.074;6.646;2022-08-01T15:25:46;6.82;;;1.40;;
59145;SDS011;44928;53.074;6.646;2022-08-01T15:28:12;8.35;;;1.45;;
59145;SDS011;44928;53.074;6.646;2022-08-01T15:30:37;4.78;;;1.13;;
59145;SDS011;44928;53.074;6.646;2022-08-01T15:33:04;5.50;;;1.13;;
59145;SDS011;44928;53.074;6.646;2022-08-01T15:35:30;9.32;;;1.38;;
59145;SDS011;44928;53.074;6.646;2022-08-01T15:37:56;7.10;;;1.30;;